Résultats

Course du Bien Public:3Km - Benjamins & Minimes. Édition 2013.

3 Km
07/09/2013 à 00:00:00 - ()
71 arrivant(e)s.





Place▲ Temps Dossard Nom Prenom Categ #Categ Sexe #Sexe Club Vit Moy Diplôme Partager
1 00:08:55 4044 MENY LOUIS MIM 1 M 1 20.19
2 00:08:55 4045 MENY PAUL MIM 2 M 2 20.19
3 00:09:12 4005 REMOND TOM MIM 3 M 3 AC CHENOVE 19.57
4 00:09:14 4014 CAMBAZARD ARNAUD MIM 4 M 4 AC CHENOVE 19.49
5 00:09:32 4001 CASTELLA PIERRE BEM 1 M 5 18.88
6 00:09:32 4079 CULTRU SACHA MIM 5 M 6 18.88
7 00:09:34 4000 CONTE VICTOR BEM 2 M 7 AC CHENOVE 18.82
8 00:09:35 4046 GUIGON CLEMENT BEM 3 M 8 18.78
9 00:09:40 4076 MOREAU EMILE MIM 6 M 9 18.62
10 00:09:41 4024 GAILLARD QUENTIN BEM 4 M 10 18.59
11 00:09:43 4062 CHAMBRION ALEXIS BEM 5 M 11 DIJON UC 18.52
12 00:09:44 4065 BOUDRIOT NICOLAS MIM 7 M 12 18.49
13 00:10:02 4078 LE-BARON ELSA BEF 1 F 1 17.94
14 00:10:05 4080 DIOLOT EMMA BEF 2 F 2 17.85
15 00:10:13 4057 SEGARD ELWAN BEM 6 M 13 17.62
16 00:10:14 4072 PUCET HELENE MIF 1 F 3 17.59
17 00:10:14 4025 LALLEMENT EMMA MIF 2 F 4 17.59
18 00:10:18 4069 FURET GUILLAUME MIM 8 M 14 17.48
19 00:10:18 4033 SPERANZA ENZO MIM 9 M 15 17.48
20 00:10:20 4023 MICHAUT BASTIEN BEM 7 M 16 DIJON UC 17.42
21 00:10:26 4037 MARTIN LEO BEM 8 M 17 17.25
22 00:10:29 4039 MOREAU EMILE BEM 9 M 18 17.17
23 00:10:31 4029 JOHA ALAN BEM 10 M 19 9.9
24 00:10:35 4018 CHEMET MARINE BEF 3 F 5 SEMUR ATHLETISME AVENTURE 9.9
25 00:10:35 4075 BOSSU ALIX MIM 10 M 20 9.9
26 00:10:35 4035 PERROT LEO BEM 11 M 21 AC CHENOVE 9.9
27 00:10:37 4061 MOLLARD BASILE BEM 12 M 22 16.95
28 00:10:43 4006 RACLIN MATTHIEU BEM 13 M 23 AC CHENOVE 16.80
29 00:10:56 4007 NOTIN GEOFFREY MIM 11 M 24 16.46
30 00:10:57 4067 RULA TOM BEM 14 M 25 16.44
31 00:11:05 4071 RICHARD HUGO BEM 15 M 26 16.24
32 00:11:07 4051 MOREY CHARLOTTE BEF 4 F 6 16.19
33 00:11:09 4059 DUVERNOIS ALEXIS BEM 16 M 27 16.14
34 00:11:09 4011 LOPEZ MATHEO BEM 17 M 28 16.14
35 00:11:12 4013 LEGRAND ESTEBAN BEM 18 M 29 AC CHENOVE 9.9
36 00:11:14 4012 LOPEZ HUGO BEM 19 M 30 9.9
37 00:11:16 4038 GAGNEUR THIBAULT MIM 12 M 31 15.98
38 00:11:23 4028 HEINTZ ALINE BEF 5 F 7 15.81
39 00:11:27 4053 BARON PIERRE BEM 20 M 32 15.72
40 00:11:29 4063 LATOUR EMILE MIM 13 M 33 15.67
41 00:11:31 4008 PASTERNAK KELYAN BEM 21 M 34 15.63
42 00:11:32 4047 PARROD ARTHUR MIM 14 M 35 15.61
43 00:11:44 4032 MORIN MATHILDE BEF 6 F 8 ASPTT DIJON ATHLETISME 15.34
44 00:11:46 4052 FOVIAUX ARTHUR BEM 22 M 36 15.30
45 00:11:47 4016 TREUCHOT MARGOT BEF 7 F 9 15.28
46 00:11:49 4073 BABOUILLARD NOE BEM 23 M 37 15.23
47 00:11:53 4064 LATOUR AUGUSTE BEM 24 M 38 15.15
48 00:12:05 4021 LAUREAU FLAVIE BEF 8 F 10 14.90
49 00:12:26 4027 KRUMEICH LISA MIF 3 F 11 14.48
50 00:12:43 4036 CHARCHAUDE EDGAR BEM 25 M 39 14.15
51 00:12:43 4077 SATURNIN CLAIRE BEF 9 F 12 14.15
52 00:12:57 4002 GROSPERRIN JOANNY BEM 26 M 40 ASSOCIATION BEAUNE ATHLETISME 13.90
53 00:13:00 4100 PERONNE LUCIE BEF 10 F 13 13.85
54 00:13:02 4034 CAHAGNE IRIS BEF 11 F 14 13.81
55 00:13:07 4058 TOUZEAU APOLLINE BEF 12 F 15 13.72
56 00:13:08 4056 PHILISOT MANON BEF 13 F 16 13.71
57 00:13:11 4040 PRETET CLEMENT BEM 27 M 41 13.65
58 00:13:13 4048 PARROD KILLIAN BEM 28 M 42 13.62
59 00:13:30 4066 LAHAYE MATHILDA BEF 14 F 17 13.33
60 00:13:34 4031 VALENTIN LEONIE BEF 15 F 18 DIJON UC 13.27
61 00:13:41 4055 BONET MATEO BEM 29 M 43 13.15
62 00:13:43 4041 PRADIER VIOLETTE BEF 16 F 19 9.9
63 00:13:58 4022 ROUSSEL FRANCK MIM 15 M 44 9.9
64 00:13:59 1025 INCONNU 1 M 45 9.9
65 00:14:02 4060 WECKER BENOIT BEM 30 M 46 9.9
66 00:14:11 4015 NOTIN GAULTIER BEM 31 M 47 9.9
67 00:14:14 4070 MOUROT EMMIE BEF 17 F 20 9.9
68 00:14:23 4004 DACHICOURT JULIE BEF 18 F 21 9.9
69 00:14:31 4074 AUBERT LOAN BEM 32 M 48 9.9
70 00:14:38 4068 DESCAMPS BAPTISTE BEM 33 M 49 9.9
71 00:15:35 4042 PRADIER HUGO BEM 34 M 50 9.9